createdAt,value
2023-02-21T07:16:32.973Z,27.02
2023-02-21T07:17:32.992Z,27.05
2023-02-21T07:18:32.901Z,27.05
2023-02-21T07:19:32.880Z,27.08
2023-02-21T07:20:32.871Z,27.11
2023-02-21T07:21:32.850Z,27.10
2023-02-21T07:22:32.839Z,27.11
2023-02-21T07:23:32.832Z,27.10
2023-02-21T07:24:33.248Z,27.10
2023-02-21T07:25:32.815Z,27.08
2023-02-21T07:26:32.797Z,27.08
2023-02-21T07:27:32.788Z,27.09
2023-02-21T07:28:32.771Z,27.08
2023-02-21T07:29:32.770Z,27.08
2023-02-21T07:30:32.827Z,27.08
2023-02-21T07:31:32.913Z,27.09
2023-02-21T07:32:32.766Z,27.09
2023-02-21T07:33:32.723Z,27.08
2023-02-21T07:34:32.712Z,27.08
2023-02-21T07:35:34.278Z,27.10
2023-02-21T07:36:32.618Z,27.12
2023-02-21T07:37:32.564Z,27.09
2023-02-21T07:38:32.521Z,27.10
2023-02-21T07:39:32.469Z,27.11
2023-02-21T07:40:32.428Z,27.10
2023-02-21T07:41:32.380Z,27.11
2023-02-21T07:42:32.326Z,27.07
2023-02-21T07:43:32.861Z,27.07
2023-02-21T07:44:32.285Z,27.08
2023-02-21T07:45:32.190Z,27.08
2023-02-21T07:46:32.175Z,27.11
2023-02-21T07:47:32.086Z,27.09
2023-02-21T07:48:32.041Z,27.09
2023-02-21T07:49:31.996Z,27.11
2023-02-21T07:50:31.943Z,27.10
2023-02-21T07:51:31.900Z,27.10
2023-02-21T07:52:31.866Z,27.08
2023-02-21T07:53:31.843Z,27.08
2023-02-21T07:54:31.838Z,27.08
2023-02-21T07:55:31.818Z,27.10
2023-02-21T07:56:31.804Z,27.10
2023-02-21T07:57:31.795Z,27.11
2023-02-21T07:58:31.775Z,27.09
2023-02-21T07:59:31.777Z,27.10
2023-02-21T08:00:31.754Z,27.10
2023-02-21T08:01:31.805Z,27.10
2023-02-21T08:02:31.800Z,27.11
2023-02-21T08:03:31.812Z,27.15
2023-02-21T08:04:31.921Z,27.13
2023-02-21T08:05:31.733Z,27.14
2023-02-21T08:06:31.686Z,27.17
2023-02-21T08:07:31.682Z,27.16
2023-02-21T08:08:31.676Z,27.12
2023-02-21T08:09:31.885Z,27.13
2023-02-21T08:10:31.665Z,27.09
2023-02-21T08:11:31.648Z,27.11
2023-02-21T08:12:31.646Z,27.11
2023-02-21T08:13:31.632Z,27.09
2023-02-21T08:14:32.381Z,27.11
2023-02-21T08:15:31.610Z,27.06
2023-02-21T08:16:34.453Z,27.08
2023-02-21T08:17:31.544Z,27.05
2023-02-21T08:18:31.514Z,27.05
2023-02-21T08:19:31.456Z,27.13
2023-02-21T08:20:31.436Z,27.71
2023-02-21T08:21:31.372Z,28.62
2023-02-21T08:22:31.332Z,28.55
2023-02-21T08:23:31.363Z,28.31
2023-02-21T08:24:31.228Z,28.98
2023-02-21T08:25:31.175Z,28.85
2023-02-21T08:26:31.155Z,28.81
2023-02-21T08:27:31.090Z,29.03
2023-02-21T08:28:31.026Z,29.11
2023-02-21T08:29:30.983Z,29.31
2023-02-21T08:30:30.967Z,29.48
2023-02-21T08:31:30.882Z,29.55
2023-02-21T08:32:30.857Z,29.69
2023-02-21T08:33:31.718Z,29.91
2023-02-21T08:34:30.723Z,30.10
2023-02-21T08:35:30.678Z,30.18
2023-02-21T08:36:30.622Z,30.42
2023-02-21T08:37:30.569Z,30.55
2023-02-21T08:38:30.515Z,30.54
2023-02-21T08:39:30.540Z,30.68
2023-02-21T08:40:31.304Z,30.77
2023-02-21T08:41:30.381Z,30.90
2023-02-21T08:42:30.346Z,31.09
2023-02-21T08:43:30.294Z,31.29
2023-02-21T08:44:30.213Z,31.32
2023-02-21T08:45:30.163Z,31.62
2023-02-21T08:46:30.198Z,31.72
2023-02-21T08:47:30.063Z,31.82
2023-02-21T08:48:30.018Z,31.96
2023-02-21T08:49:29.977Z,32.05
2023-02-21T08:50:29.921Z,31.57
2023-02-21T08:51:29.858Z,30.88
2023-02-21T08:52:29.798Z,30.85
2023-02-21T08:53:29.749Z,30.76
2023-02-21T08:54:29.694Z,30.14
2023-02-21T08:55:29.647Z,29.81
2023-02-21T08:56:29.630Z,29.34
2023-02-21T08:57:29.551Z,30.00
2023-02-21T08:58:29.502Z,29.71
2023-02-21T08:59:29.502Z,29.38
2023-02-21T09:00:29.413Z,29.29
2023-02-21T09:01:29.479Z,28.16
2023-02-21T09:02:29.310Z,28.76
2023-02-21T09:03:29.246Z,28.79
2023-02-21T09:04:29.264Z,28.76
2023-02-21T09:05:29.147Z,28.69
2023-02-21T09:06:30.367Z,28.02
2023-02-21T09:07:29.050Z,28.08
2023-02-21T09:08:28.985Z,27.78
2023-02-21T09:09:28.934Z,28.03
2023-02-21T09:10:28.965Z,28.66
2023-02-21T09:11:28.857Z,29.29
2023-02-21T09:12:28.793Z,29.39
2023-02-21T09:13:28.755Z,29.34
2023-02-21T09:14:28.746Z,29.41
2023-02-21T09:15:29.471Z,29.56
2023-02-21T09:16:28.785Z,29.69
2023-02-21T09:17:28.726Z,26.62
2023-02-21T09:18:28.809Z,26.37
2023-02-21T09:19:28.694Z,27.49
2023-02-21T09:20:28.725Z,26.02
2023-02-21T09:21:28.750Z,27.06
2023-02-21T09:22:28.780Z,26.15
2023-02-21T09:23:28.776Z,24.95
2023-02-21T09:24:28.770Z,23.54
2023-02-21T09:25:28.761Z,22.82
2023-02-21T09:26:28.804Z,23.15
2023-02-21T09:27:28.838Z,23.72
2023-02-21T09:28:28.848Z,23.62
2023-02-21T09:29:37.042Z,23.82
2023-02-21T09:30:29.888Z,23.75
2023-02-21T09:31:28.857Z,23.76
2023-02-21T09:32:28.853Z,23.92
2023-02-21T09:33:28.737Z,24.39
2023-02-21T09:34:28.786Z,24.73
2023-02-21T09:35:28.664Z,25.11
2023-02-21T09:36:28.679Z,25.39
2023-02-21T09:37:28.611Z,25.66
2023-02-21T09:38:28.560Z,25.79
2023-02-21T09:39:28.522Z,25.98
2023-02-21T09:40:28.482Z,26.27
2023-02-21T09:41:28.428Z,26.31
2023-02-21T09:42:28.388Z,26.34
2023-02-21T09:43:28.346Z,26.49
2023-02-21T09:44:28.298Z,26.58
2023-02-21T09:45:28.281Z,26.75
2023-02-21T09:46:28.203Z,26.73
2023-02-21T09:47:28.221Z,26.84
2023-02-21T09:48:28.318Z,27.20
2023-02-21T09:49:28.253Z,27.45
2023-02-21T09:50:28.255Z,27.31
2023-02-21T09:51:28.259Z,27.22
2023-02-21T09:52:28.906Z,27.46
2023-02-21T09:53:28.258Z,27.49
2023-02-21T09:54:28.239Z,27.57
2023-02-21T09:55:30.502Z,27.79
2023-02-21T09:56:28.266Z,27.87
2023-02-21T09:57:28.220Z,27.97
2023-02-21T09:58:28.194Z,28.11
2023-02-21T09:59:28.213Z,28.19
2023-02-21T10:00:28.415Z,28.35
2023-02-21T10:01:28.170Z,28.51
2023-02-21T10:02:29.056Z,28.69
2023-02-21T10:03:28.000Z,28.99
2023-02-21T10:04:27.958Z,28.95
2023-02-21T10:05:27.951Z,29.13
2023-02-21T10:06:27.866Z,29.48
2023-02-21T10:07:27.800Z,29.37
2023-02-21T10:08:27.740Z,29.52
2023-02-21T10:09:27.706Z,29.64
2023-02-21T10:10:27.639Z,29.65
2023-02-21T10:11:27.582Z,29.81
2023-02-21T10:12:27.533Z,29.95
2023-02-21T10:13:27.479Z,29.98
2023-02-21T10:14:27.417Z,30.26
2023-02-21T10:15:27.359Z,30.29
2023-02-21T10:16:27.321Z,30.40
2023-02-21T10:17:27.231Z,30.32
2023-02-21T10:18:27.172Z,30.25
2023-02-21T10:19:27.140Z,30.26
2023-02-21T10:20:27.048Z,30.60
2023-02-21T10:21:27.043Z,30.55
2023-02-21T10:22:26.957Z,30.79
2023-02-21T10:23:26.861Z,30.95
2023-02-21T10:24:26.802Z,31.16
2023-02-21T10:25:26.733Z,31.30
2023-02-21T10:26:26.706Z,31.40
2023-02-21T10:27:27.338Z,31.72
2023-02-21T10:28:26.538Z,31.92
2023-02-21T10:29:26.472Z,32.25
2023-02-21T10:30:26.577Z,31.98
2023-02-21T10:31:26.414Z,32.05
2023-02-21T10:32:26.331Z,32.34
2023-02-21T10:33:26.317Z,32.34
2023-02-21T10:34:26.307Z,32.27
2023-02-21T10:35:26.424Z,32.37
2023-02-21T10:36:26.302Z,32.53
2023-02-21T10:37:26.444Z,32.52
2023-02-21T10:38:26.378Z,32.95
2023-02-21T10:39:26.325Z,32.84
2023-02-21T10:40:26.320Z,32.94
2023-02-21T10:41:26.304Z,33.06
2023-02-21T10:42:26.352Z,33.13
2023-02-21T10:43:26.299Z,33.21
2023-02-21T10:44:26.298Z,33.37
2023-02-21T10:45:26.294Z,33.51
2023-02-21T10:46:26.286Z,33.65
2023-02-21T10:47:26.322Z,33.51
2023-02-21T10:48:26.244Z,33.77
2023-02-21T10:49:26.228Z,33.84
2023-02-21T10:50:26.212Z,33.85
2023-02-21T10:51:26.197Z,34.07
2023-02-21T10:52:26.184Z,34.04
2023-02-21T10:53:26.168Z,34.17
2023-02-21T10:54:26.137Z,34.20
2023-02-21T10:55:33.052Z,34.30
2023-02-21T10:56:27.049Z,34.31
2023-02-21T10:57:25.980Z,34.48
2023-02-21T10:58:25.899Z,34.62
2023-02-21T10:59:25.835Z,34.58
2023-02-21T11:00:25.762Z,34.76
2023-02-21T11:01:25.883Z,34.68
2023-02-21T11:02:25.698Z,34.83
2023-02-21T11:03:25.552Z,34.97
2023-02-21T11:04:25.487Z,35.04
2023-02-21T11:05:25.419Z,35.24
2023-02-21T11:06:27.894Z,35.20
2023-02-21T11:07:25.497Z,35.33
2023-02-21T11:08:25.439Z,35.31
2023-02-21T11:09:25.378Z,35.54
2023-02-21T11:10:25.324Z,35.66
2023-02-21T11:11:25.277Z,35.24
2023-02-21T11:12:25.340Z,35.40
2023-02-21T11:13:25.216Z,35.43
2023-02-21T11:14:25.149Z,35.31
2023-02-21T11:15:25.086Z,35.21
2023-02-21T11:16:25.132Z,35.22
2023-02-21T11:17:25.009Z,35.15
2023-02-21T11:18:25.091Z,35.04
2023-02-21T11:19:24.949Z,35.07
2023-02-21T11:20:24.907Z,35.06
2023-02-21T11:21:24.875Z,35.06
2023-02-21T11:22:24.850Z,35.07
2023-02-21T11:23:24.817Z,35.05
2023-02-21T11:24:24.863Z,35.07
2023-02-21T11:25:25.443Z,35.04
2023-02-21T11:26:24.765Z,34.97
2023-02-21T11:27:24.730Z,35.08
2023-02-21T11:28:25.432Z,34.99
2023-02-21T11:29:24.691Z,35.04
2023-02-21T11:30:24.709Z,34.98
2023-02-21T11:31:24.814Z,34.97
2023-02-21T11:32:25.442Z,34.91
2023-02-21T11:33:24.607Z,34.86
2023-02-21T11:34:24.564Z,34.85
2023-02-21T11:35:24.564Z,34.84
2023-02-21T11:36:24.538Z,34.83
2023-02-21T11:37:24.503Z,34.81
2023-02-21T11:38:24.486Z,34.79
2023-02-21T11:39:24.452Z,34.74
2023-02-21T11:40:24.418Z,34.74
2023-02-21T11:41:24.399Z,34.69
2023-02-21T11:42:24.362Z,34.62
2023-02-21T11:43:24.329Z,34.61
2023-02-21T11:44:24.297Z,34.58
2023-02-21T11:45:24.262Z,34.60
2023-02-21T11:46:24.388Z,34.54
2023-02-21T11:47:24.200Z,34.51
2023-02-21T11:48:24.162Z,34.48
2023-02-21T11:49:24.118Z,34.44
2023-02-21T11:50:24.086Z,34.42
2023-02-21T11:51:24.033Z,34.39
2023-02-21T11:52:23.996Z,34.31
2023-02-21T11:53:23.974Z,34.33
2023-02-21T11:54:23.919Z,34.28
2023-02-21T11:55:26.264Z,34.25
2023-02-21T11:56:24.015Z,34.17
2023-02-21T11:57:23.962Z,34.17
2023-02-21T11:58:23.917Z,34.09
2023-02-21T11:59:23.859Z,34.06
2023-02-21T12:00:23.836Z,34.06
2023-02-21T12:01:23.752Z,33.97
2023-02-21T12:02:23.800Z,33.93
2023-02-21T12:03:23.684Z,33.93
2023-02-21T12:04:23.604Z,33.87
2023-02-21T12:05:23.547Z,33.86
2023-02-21T12:06:23.511Z,33.83
2023-02-21T12:07:23.439Z,33.77
2023-02-21T12:08:23.399Z,33.76
2023-02-21T12:09:23.325Z,33.71
2023-02-21T12:10:23.261Z,33.68
2023-02-21T12:11:23.200Z,33.63
2023-02-21T12:12:23.134Z,33.65
2023-02-21T12:13:23.077Z,33.62
2023-02-21T12:14:23.023Z,33.55
2023-02-21T12:15:22.940Z,33.52
2023-02-21T12:16:22.880Z,33.49
2023-02-21T12:17:22.814Z,33.43
2023-02-21T12:18:22.746Z,33.38
2023-02-21T12:19:22.668Z,33.36
2023-02-21T12:20:22.679Z,33.33
2023-02-21T12:21:22.535Z,33.30
2023-02-21T12:22:22.459Z,33.25
2023-02-21T12:23:22.404Z,33.23
2023-02-21T12:24:22.317Z,33.18
2023-02-21T12:25:22.255Z,33.17
2023-02-21T12:26:22.181Z,33.11
2023-02-21T12:27:22.136Z,33.06
2023-02-21T12:28:22.046Z,33.04
2023-02-21T12:29:21.970Z,33.01
2023-02-21T12:30:21.918Z,32.98
2023-02-21T12:31:21.953Z,32.95
2023-02-21T12:32:21.836Z,32.95
2023-02-21T12:33:21.741Z,32.89
2023-02-21T12:44:21.971Z,32.53
2023-02-21T14:22:16.188Z,30.63
2023-02-21T14:23:16.100Z,30.65
2023-02-21T14:24:16.029Z,30.61
2023-02-21T14:25:15.957Z,30.58
2023-02-21T14:26:16.185Z,30.54
2023-02-21T14:27:15.813Z,30.51
2023-02-21T14:28:15.762Z,30.55
2023-02-21T14:29:15.678Z,30.56
2023-02-21T14:30:15.605Z,30.58
2023-02-21T14:31:15.870Z,30.62
2023-02-21T14:32:15.574Z,30.66
2023-02-21T14:33:17.141Z,30.69
2023-02-21T14:34:15.436Z,30.72
2023-02-21T14:35:15.351Z,30.79
2023-02-21T14:36:15.284Z,30.84
2023-02-21T14:37:15.221Z,30.89
2023-02-21T14:38:15.167Z,30.90
2023-02-21T14:39:15.111Z,30.97
2023-02-21T14:40:15.077Z,31.01
2023-02-21T14:41:15.318Z,31.04
2023-02-21T14:42:14.958Z,31.05
2023-02-21T14:43:14.931Z,31.05
2023-02-21T14:44:14.876Z,31.04
2023-02-21T14:45:14.831Z,31.07
2023-02-21T14:46:14.807Z,31.11
2023-02-21T14:47:15.517Z,31.13
2023-02-21T14:48:14.745Z,31.15
2023-02-21T14:49:17.113Z,31.16
2023-02-21T14:50:14.898Z,31.22
2023-02-21T14:51:15.210Z,31.25
2023-02-21T14:52:14.837Z,31.27
2023-02-21T14:53:14.815Z,31.35
2023-02-21T14:54:14.805Z,31.37
2023-02-21T14:55:14.787Z,31.43
2023-02-21T14:56:14.776Z,31.50
2023-02-21T14:57:14.756Z,31.55
2023-02-21T14:58:14.765Z,31.55
2023-02-21T14:59:14.844Z,31.61
2023-02-21T15:00:14.768Z,31.65
2023-02-21T15:01:15.279Z,31.71
2023-02-21T15:02:14.768Z,31.75
2023-02-21T15:03:14.751Z,31.78
2023-02-21T15:04:14.760Z,31.85
2023-02-21T15:05:14.688Z,31.92
2023-02-21T15:06:14.662Z,31.96
2023-02-21T15:07:14.649Z,32.03
2023-02-21T15:08:15.026Z,32.05
2023-02-21T15:09:15.525Z,32.10
2023-02-21T15:10:14.556Z,32.16
2023-02-21T15:11:15.281Z,32.19
2023-02-21T15:12:14.356Z,32.21
2023-02-21T15:13:14.288Z,32.23
2023-02-21T15:14:14.228Z,32.29
2023-02-21T15:15:14.177Z,32.32
2023-02-21T15:16:14.163Z,32.35
2023-02-21T15:17:14.081Z,32.37
2023-02-21T15:18:14.022Z,32.39
2023-02-21T15:19:13.977Z,32.41
2023-02-21T15:20:13.938Z,32.43
2023-02-21T15:21:13.988Z,32.46
2023-02-21T15:22:13.844Z,32.48
2023-02-21T15:23:13.810Z,32.50
2023-02-21T15:24:13.759Z,32.55
2023-02-21T15:25:13.725Z,32.56
2023-02-21T15:26:13.689Z,32.58
2023-02-21T15:27:15.452Z,32.61
2023-02-21T15:28:13.611Z,32.59
2023-02-21T15:29:13.589Z,32.65
2023-02-21T15:30:13.592Z,32.66
2023-02-21T15:31:13.711Z,32.69
2023-02-21T15:32:13.498Z,32.72
2023-02-21T15:33:13.470Z,32.73
2023-02-21T15:34:13.449Z,32.71
2023-02-21T15:35:13.426Z,32.79
2023-02-21T15:36:13.540Z,32.77
2023-02-21T15:37:13.448Z,32.82
2023-02-21T15:38:13.353Z,32.81
2023-02-21T15:39:13.342Z,32.85
2023-02-21T15:40:13.318Z,32.83
2023-02-21T15:41:13.524Z,32.88
2023-02-21T15:42:13.278Z,32.86
2023-02-21T15:43:13.260Z,32.88
2023-02-21T15:44:13.261Z,32.89
2023-02-21T15:45:13.236Z,32.91
2023-02-21T15:46:13.335Z,32.91
2023-02-21T15:47:13.226Z,32.95
2023-02-21T15:48:13.212Z,32.94
2023-02-21T15:49:13.202Z,32.97
2023-02-21T15:50:13.206Z,32.98
2023-02-21T15:51:13.435Z,33.00
2023-02-21T15:52:13.245Z,33.00
2023-02-21T15:53:13.249Z,33.03
2023-02-21T15:54:13.182Z,33.04
2023-02-21T15:55:13.184Z,33.05
2023-02-21T15:56:13.267Z,33.07
2023-02-21T15:57:14.031Z,33.06
2023-02-21T15:58:13.179Z,33.09
2023-02-21T15:59:13.189Z,33.08
2023-02-21T16:00:13.174Z,33.09
2023-02-21T16:01:13.377Z,33.14
2023-02-21T16:02:13.425Z,33.14
2023-02-21T16:03:13.189Z,33.13
2023-02-21T16:04:13.205Z,33.15
2023-02-21T16:05:13.203Z,33.14
2023-02-21T16:06:13.274Z,33.17
2023-02-21T16:07:13.218Z,33.18
2023-02-21T16:08:13.218Z,33.20
2023-02-21T16:09:13.225Z,33.22
2023-02-21T16:10:13.223Z,33.23
2023-02-21T16:11:13.434Z,33.23
2023-02-21T16:12:13.231Z,33.21
2023-02-21T16:13:13.221Z,33.25
2023-02-21T16:14:13.233Z,33.27
2023-02-21T16:15:13.207Z,33.26
2023-02-21T16:16:13.332Z,33.25
2023-02-21T16:17:13.293Z,33.25
2023-02-21T16:18:13.184Z,33.27
2023-02-21T16:19:13.180Z,33.28
2023-02-21T16:20:13.153Z,33.28
2023-02-21T16:21:13.346Z,33.31
2023-02-21T16:22:13.096Z,33.30
2023-02-21T16:23:14.044Z,33.32
2023-02-21T16:24:13.027Z,33.33
2023-02-21T16:25:12.998Z,33.32
2023-02-21T16:26:12.996Z,33.33
2023-02-21T16:27:12.983Z,33.33
2023-02-21T16:28:12.934Z,33.34
2023-02-21T16:29:12.877Z,33.34
2023-02-21T16:30:12.842Z,33.35
2023-02-21T16:31:12.849Z,33.34
2023-02-21T16:32:13.121Z,33.34
2023-02-21T16:33:12.638Z,33.37
2023-02-21T16:34:12.596Z,33.38
2023-02-21T16:35:12.528Z,33.35
2023-02-21T16:36:12.561Z,33.38
2023-02-21T16:37:12.435Z,33.36
2023-02-21T16:38:12.383Z,33.39
2023-02-21T16:39:12.329Z,33.38
2023-02-21T16:40:12.273Z,33.40
2023-02-21T16:41:14.123Z,33.41
2023-02-21T16:42:12.162Z,33.41
2023-02-21T16:43:12.091Z,33.39
2023-02-21T16:44:12.037Z,33.43
2023-02-21T16:45:11.980Z,33.41
2023-02-21T16:46:12.011Z,33.42
2023-02-21T16:47:11.867Z,33.43
2023-02-21T16:48:12.065Z,33.43
2023-02-21T16:49:11.757Z,33.47
2023-02-21T17:16:10.262Z,33.57
2023-02-21T17:19:10.057Z,33.58
2023-02-21T17:20:10.026Z,33.62
2023-02-21T17:21:09.945Z,33.62
2023-02-21T17:22:09.902Z,33.61
2023-02-21T17:23:09.855Z,33.59
2023-02-21T17:24:09.765Z,33.61
2023-02-21T17:25:09.714Z,33.61
2023-02-21T17:26:09.664Z,33.61
2023-02-21T17:27:09.597Z,33.60
2023-02-21T21:23:08.984Z,33.35
2023-02-21T21:24:08.944Z,33.32
2023-02-21T21:25:08.957Z,33.30
2023-02-21T21:26:08.943Z,33.31
2023-02-21T21:27:09.196Z,33.29
2023-02-21T21:28:08.933Z,33.32
2023-02-21T21:29:08.949Z,33.31
2023-02-21T21:30:08.965Z,33.30
2023-02-21T21:31:09.013Z,33.29
2023-02-21T21:32:08.931Z,33.27
2023-02-21T21:33:08.862Z,33.27
2023-02-21T21:34:08.996Z,33.27
2023-02-21T21:35:08.868Z,33.28
2023-02-21T21:36:08.802Z,33.28
2023-02-21T21:37:08.819Z,33.26
2023-02-21T21:38:08.743Z,33.28
2023-02-21T21:39:08.721Z,33.30
2023-02-21T21:40:08.702Z,33.27
2023-02-21T21:41:08.708Z,33.26
2023-02-21T21:42:08.765Z,33.27
2023-02-21T21:43:08.655Z,33.27
2023-02-21T21:44:08.625Z,33.25
2023-02-21T21:45:08.624Z,33.25
2023-02-21T21:46:08.631Z,33.24
2023-02-21T21:47:08.619Z,33.25
2023-02-21T21:48:08.640Z,33.25
2023-02-21T21:49:08.676Z,33.24
2023-02-21T21:50:08.647Z,33.24
2023-02-21T21:51:08.595Z,33.24
2023-02-21T21:52:08.744Z,33.22
2023-02-21T21:53:08.555Z,33.23
2023-02-21T21:54:08.570Z,33.25
2023-02-21T21:55:08.550Z,33.23
2023-02-21T21:56:08.595Z,33.23
2023-02-21T21:57:08.489Z,33.21
2023-02-21T21:58:08.497Z,33.22
2023-02-21T21:59:08.467Z,33.22
2023-02-21T22:00:08.436Z,33.20
2023-02-21T22:01:08.475Z,33.21
2023-02-21T22:02:08.371Z,33.20
2023-02-21T22:03:08.343Z,33.20
2023-02-21T22:04:08.306Z,33.20
2023-02-21T22:05:08.282Z,33.19
2023-02-21T22:06:08.305Z,33.20
2023-02-21T22:07:08.207Z,33.20
2023-02-21T22:08:08.169Z,33.20
2023-02-21T23:31:05.631Z,32.85
2023-02-21T23:32:05.573Z,32.84
2023-02-21T23:33:05.532Z,32.80
2023-02-21T23:34:05.490Z,32.77
2023-02-21T23:35:05.448Z,32.75
2023-02-21T23:36:05.440Z,32.79
2023-02-21T23:37:05.395Z,32.79
2023-02-21T23:38:05.352Z,32.79
2023-02-21T23:40:05.281Z,32.77
2023-02-21T23:41:05.318Z,32.73
2023-02-21T23:42:05.214Z,32.70
2023-02-21T23:43:05.186Z,32.72
2023-02-21T23:44:05.151Z,32.74
2023-02-21T23:45:05.112Z,32.71
2023-02-21T23:46:05.083Z,32.72
2023-02-21T23:47:05.035Z,32.71
2023-02-21T23:48:05.014Z,32.68
2023-02-21T23:49:04.975Z,32.67
2023-02-21T23:50:04.937Z,32.64
2023-02-21T23:51:04.900Z,32.66
2023-02-21T23:52:04.868Z,32.66
2023-02-21T23:53:04.835Z,32.64
2023-02-21T23:54:04.807Z,32.61
2023-02-21T23:55:04.772Z,32.61
2023-02-21T23:56:04.735Z,32.61
2023-02-21T23:57:04.703Z,32.61
2023-02-21T23:58:04.725Z,32.58
2023-02-21T23:59:04.644Z,32.59
